Terminal Aerodrome Forecast
Issued by NWS

Home | Current Version | Previous Version | Text Only | Print | Product List | Glossary On
Versions: 1 2 3 4 5 6 7 8 9 10 11 12 13 14 15 16 17 18 19 20 21 22 23 24 25 26 27 28 29 30 31 32 33 34 35
696
FTUS41 KOKX 181202 AAA
TAFTEB
TAF AMD
KTEB 181202Z 1812/1918 23007KT P6SM SKC
     FM181400 27010KT P6SM SKC
     FM181500 29011G17KT P6SM SKC
     FM181800 31012G20KT P6SM FEW030
     FM182300 31008KT P6SM SKC
     FM190400 VRB04KT P6SM SKC
     FM190700 28005KT P6SM FEW030 SCT170
     FM191500 27008KT P6SM FEW030 FEW200=

USA.gov is the U.S. government's official web portal to all federal, state and local government web resources and services.